Time;durP1;ratioP1;P1;durP2;ratioP2;P2;SDS_P1;SDS_P2;PMS_P1;PMS_P2;Temp;Humidity;BMP_temperature;BMP_pressure;BME280_temperature;BME280_humidity;BME280_pressure;Samples;Min_cycle;Max_cycle;Signal;HPM_P1;HPM_P2
2022/06/23 00:01:46;;;;;;;15.60;13.00;;;;;;;;;;4962922;28;21692;-68
2022/06/23 00:04:17;;;;;;;17.40;13.23;;;;;;;;;;4966602;28;20276;-67
2022/06/23 00:06:45;;;;;;;14.70;13.20;;;;;;;;;;4966021;28;20249;-67
2022/06/23 00:09:30;;;;;;;14.80;13.13;;;;;;;;;;4964811;28;20299;-67
2022/06/23 00:11:56;;;;;;;16.93;15.13;;;;;;;;;;4964696;28;20185;-67
2022/06/23 00:14:24;;;;;;;16.07;14.53;;;;;;;;;;4953942;28;20247;-67
2022/06/23 00:16:50;;;;;;;16.13;14.53;;;;;;;;;;4966259;28;20216;-67
2022/06/23 00:19:17;;;;;;;15.87;14.17;;;;;;;;;;4965580;28;20219;-67
2022/06/23 00:21:45;;;;;;;17.20;15.50;;;;;;;;;;4970664;28;20192;-67
2022/06/23 00:24:17;;;;;;;17.70;15.87;;;;;;;;;;4970222;28;20199;-67
2022/06/23 00:26:44;;;;;;;15.50;13.90;;;;;;;;;;4966509;28;20239;-67
2022/06/23 00:29:13;;;;;;;16.00;13.40;;;;;;;;;;4975206;28;20215;-67
2022/06/23 00:32:01;;;;;;;13.23;11.73;;;;;;;;;;4974972;28;20188;-67
2022/06/23 00:34:27;;;;;;;13.70;12.40;;;;;;;;;;4974519;28;20211;-68
2022/06/23 00:36:55;;;;;;;15.53;13.97;;;;;;;;;;4968534;28;20215;-68
2022/06/23 00:39:25;;;;;;;14.93;13.43;;;;;;;;;;4964615;28;20269;-67
2022/06/23 00:41:51;;;;;;;13.80;12.23;;;;;;;;;;4968685;28;20188;-67
2022/06/23 00:44:21;;;;;;;14.07;12.67;;;;;;;;;;4969668;28;20193;-67
2022/06/23 00:46:50;;;;;;;13.50;12.20;;;;;;;;;;4975585;28;20690;-68
2022/06/23 00:49:16;;;;;;;14.97;13.37;;;;;;;;;;4963721;28;20220;-67
2022/06/23 00:52:02;;;;;;;16.30;14.10;;;;;;;;;;4965020;28;20275;-67
2022/06/23 00:54:32;;;;;;;15.67;13.33;;;;;;;;;;4964783;28;20205;-67
2022/06/23 00:56:58;;;;;;;13.60;12.30;;;;;;;;;;4966072;28;20180;-67
2022/06/23 00:59:29;;;;;;;12.93;11.63;;;;;;;;;;4965752;28;20219;-67
2022/06/23 01:01:58;;;;;;;17.30;13.57;;;;;;;;;;4969652;28;20280;-67
2022/06/23 01:04:36;;;;;;;14.50;12.33;;;;;;;;;;4964064;28;20246;-67
2022/06/23 01:07:08;;;;;;;13.67;12.27;;;;;;;;;;4966346;28;20194;-67
2022/06/23 01:09:50;;;;;;;17.37;14.30;;;;;;;;;;4965388;28;20259;-67
2022/06/23 01:12:25;;;;;;;15.77;12.93;;;;;;;;;;4962555;28;20215;-67
2022/06/23 01:14:58;;;;;;;15.60;13.80;;;;;;;;;;4949369;28;20562;-67
2022/06/23 01:17:37;;;;;;;13.53;11.80;;;;;;;;;;4948347;28;20176;-67
2022/06/23 01:20:03;;;;;;;12.83;10.60;;;;;;;;;;4949016;28;20220;-67
2022/06/23 01:23:05;;;;;;;12.97;11.60;;;;;;;;;;4961795;28;20194;-67
2022/06/23 01:25:37;;;;;;;13.27;11.87;;;;;;;;;;4904092;29;20257;-67
2022/06/23 01:28:14;;;;;;;13.03;11.23;;;;;;;;;;4952122;28;20221;-67
2022/06/23 01:30:44;;;;;;;12.07;10.47;;;;;;;;;;4962148;28;20219;-67
2022/06/23 01:33:21;;;;;;;14.47;11.77;;;;;;;;;;4965482;28;20207;-67
2022/06/23 01:36:00;;;;;;;10.20;9.10;;;;;;;;;;4968313;28;20187;-67
2022/06/23 01:38:33;;;;;;;12.17;9.67;;;;;;;;;;4961127;28;20712;-67
2022/06/23 01:41:01;;;;;;;12.03;9.77;;;;;;;;;;4962646;28;20295;-67
2022/06/23 01:43:39;;;;;;;13.03;11.27;;;;;;;;;;4964799;28;20275;-67
2022/06/23 01:46:22;;;;;;;15.53;11.90;;;;;;;;;;4965553;28;20188;-67
2022/06/23 01:48:54;;;;;;;13.37;11.70;;;;;;;;;;4967940;28;20227;-67
2022/06/23 01:51:26;;;;;;;16.47;12.83;;;;;;;;;;4965306;28;20224;-67
2022/06/23 01:53:54;;;;;;;15.50;13.90;;;;;;;;;;4972801;28;20219;-67
2022/06/23 01:56:32;;;;;;;13.07;11.73;;;;;;;;;;4971118;28;20183;-67
2022/06/23 01:59:01;;;;;;;16.50;14.53;;;;;;;;;;4968061;28;20298;-68
2022/06/23 02:01:30;;;;;;;15.07;13.57;;;;;;;;;;4966508;28;20570;-67
2022/06/23 02:04:00;;;;;;;16.17;13.87;;;;;;;;;;4969831;28;20196;-68
2022/06/23 02:06:29;;;;;;;18.20;14.73;;;;;;;;;;4968887;28;20223;-67
2022/06/23 02:09:05;;;;;;;17.60;14.47;;;;;;;;;;4966871;28;21367;-67
2022/06/23 02:11:42;;;;;;;17.97;15.37;;;;;;;;;;4971460;28;20188;-67
2022/06/23 02:14:08;;;;;;;17.17;15.40;;;;;;;;;;4965133;28;20870;-67
2022/06/23 02:16:40;;;;;;;16.67;14.93;;;;;;;;;;4969408;28;20287;-67
2022/06/23 02:19:15;;;;;;;17.00;14.30;;;;;;;;;;4969856;28;20211;-67
2022/06/23 02:21:46;;;;;;;15.73;13.40;;;;;;;;;;4967831;28;20275;-67
2022/06/23 02:24:21;;;;;;;13.50;12.20;;;;;;;;;;4970198;28;20879;-67
2022/06/23 02:26:58;;;;;;;13.13;11.90;;;;;;;;;;4970300;28;20187;-67
2022/06/23 02:29:46;;;;;;;14.17;12.47;;;;;;;;;;4966332;28;20219;-67
2022/06/23 02:32:26;;;;;;;13.23;11.83;;;;;;;;;;4965993;28;20701;-67
2022/06/23 02:34:55;;;;;;;12.80;11.47;;;;;;;;;;4967087;28;20198;-67
2022/06/23 02:37:40;;;;;;;15.93;11.27;;;;;;;;;;4969244;28;20212;-67
2022/06/23 02:40:15;;;;;;;12.37;10.83;;;;;;;;;;4967942;28;20607;-67
2022/06/23 02:42:41;;;;;;;11.17;9.97;;;;;;;;;;4968991;28;20616;-67
2022/06/23 02:45:08;;;;;;;10.90;9.90;;;;;;;;;;4967584;28;20718;-67
2022/06/23 02:47:42;;;;;;;13.50;11.43;;;;;;;;;;4967824;28;20200;-67
2022/06/23 02:50:11;;;;;;;12.53;10.60;;;;;;;;;;4966830;28;20219;-67
2022/06/23 02:52:56;;;;;;;12.37;10.87;;;;;;;;;;4968132;28;20536;-67
2022/06/23 02:55:41;;;;;;;12.13;10.93;;;;;;;;;;4971037;28;20204;-67
2022/06/23 02:58:09;;;;;;;13.63;11.10;;;;;;;;;;4963825;28;20228;-67
2022/06/23 03:00:59;;;;;;;11.77;10.57;;;;;;;;;;4961419;28;20227;-67
2022/06/23 03:03:30;;;;;;;11.67;10.43;;;;;;;;;;4968340;28;20203;-67
2022/06/23 03:05:59;;;;;;;11.80;10.30;;;;;;;;;;4965393;28;20250;-67
2022/06/23 03:08:41;;;;;;;11.30;10.20;;;;;;;;;;4966698;28;20226;-67
2022/06/23 03:11:10;;;;;;;10.87;9.87;;;;;;;;;;4967574;28;20176;-67
2022/06/23 03:13:36;;;;;;;13.33;11.00;;;;;;;;;;4964002;28;20188;-67
2022/06/23 03:16:17;;;;;;;11.00;9.73;;;;;;;;;;4966265;28;20180;-67
2022/06/23 03:19:00;;;;;;;11.60;10.40;;;;;;;;;;4961386;28;20231;-67
2022/06/23 03:21:44;;;;;;;12.80;11.23;;;;;;;;;;4960952;28;20336;-67
2022/06/23 03:24:11;;;;;;;12.60;11.30;;;;;;;;;;4962314;28;20205;-67
2022/06/23 03:26:45;;;;;;;13.47;11.10;;;;;;;;;;4963198;28;20184;-67
2022/06/23 03:29:29;;;;;;;11.87;10.53;;;;;;;;;;4961965;28;20230;-68
2022/06/23 03:32:10;;;;;;;13.30;10.97;;;;;;;;;;4965291;28;20319;-68
2022/06/23 03:34:39;;;;;;;11.63;10.47;;;;;;;;;;4963633;28;20197;-68
2022/06/23 03:37:07;;;;;;;11.77;10.40;;;;;;;;;;4964086;28;20189;-68
2022/06/23 03:42:50;;;;;;;12.27;10.67;;;;;;;;;;4906286;29;20254;-68
2022/06/23 03:45:31;;;;;;;13.43;11.30;;;;;;;;;;4907889;29;20276;-68
2022/06/23 03:47:57;;;;;;;15.07;9.77;;;;;;;;;;4944953;28;20204;-69
2022/06/23 03:50:26;;;;;;;11.97;10.03;;;;;;;;;;4969422;28;20624;-69
2022/06/23 03:52:55;;;;;;;14.27;12.07;;;;;;;;;;4970683;28;20187;-68
2022/06/23 03:55:27;;;;;;;11.80;10.63;;;;;;;;;;4970275;28;20190;-68
2022/06/23 03:58:02;;;;;;;14.03;11.03;;;;;;;;;;4968692;28;20180;-68
2022/06/23 04:00:28;;;;;;;12.50;11.20;;;;;;;;;;4966845;28;20207;-68
2022/06/23 04:03:24;;;;;;;12.30;10.00;;;;;;;;;;4967505;28;20179;-69
2022/06/23 04:05:56;;;;;;;12.13;10.87;;;;;;;;;;4963246;28;20203;-68
2022/06/23 04:08:23;;;;;;;12.47;11.07;;;;;;;;;;4972431;28;20219;-68
2022/06/23 04:10:50;;;;;;;14.50;11.47;;;;;;;;;;4967500;28;21169;-68
2022/06/23 04:13:20;;;;;;;14.33;11.30;;;;;;;;;;4967330;28;20184;-68
2022/06/23 04:15:49;;;;;;;15.20;12.33;;;;;;;;;;4966495;28;20184;-68
2022/06/23 04:18:27;;;;;;;16.20;12.50;;;;;;;;;;4965310;28;20193;-68
2022/06/23 04:20:54;;;;;;;14.07;11.90;;;;;;;;;;4963571;28;20278;-68
2022/06/23 04:23:49;;;;;;;13.10;11.50;;;;;;;;;;4965967;28;20188;-68
2022/06/23 04:26:15;;;;;;;13.23;10.60;;;;;;;;;;4963039;28;20266;-69
2022/06/23 04:28:46;;;;;;;13.47;12.00;;;;;;;;;;4966068;28;20220;-68
2022/06/23 04:31:35;;;;;;;14.37;12.83;;;;;;;;;;4965247;28;20200;-68
2022/06/23 04:34:02;;;;;;;13.83;12.37;;;;;;;;;;4967548;28;20212;-68
2022/06/23 04:36:30;;;;;;;13.33;11.77;;;;;;;;;;4972831;28;20196;-68
2022/06/23 04:38:58;;;;;;;15.83;13.10;;;;;;;;;;4966675;28;22188;-68
2022/06/23 04:41:36;;;;;;;13.87;11.57;;;;;;;;;;4964639;28;20291;-68
2022/06/23 04:44:06;;;;;;;14.17;12.50;;;;;;;;;;4965995;28;20188;-68
2022/06/23 04:46:37;;;;;;;14.77;12.93;;;;;;;;;;4965646;28;20628;-68
2022/06/23 04:49:14;;;;;;;13.60;12.17;;;;;;;;;;4969305;28;20289;-68
2022/06/23 04:51:47;;;;;;;12.47;11.17;;;;;;;;;;4963823;28;20279;-68
2022/06/23 04:54:16;;;;;;;13.30;12.00;;;;;;;;;;4970685;28;20533;-68
2022/06/23 04:56:46;;;;;;;15.80;12.53;;;;;;;;;;4953941;28;20219;-68
2022/06/23 04:59:30;;;;;;;13.57;11.70;;;;;;;;;;4967360;28;20205;-68
2022/06/23 05:01:58;;;;;;;12.60;11.30;;;;;;;;;;4965517;28;20203;-68
2022/06/23 05:04:27;;;;;;;12.43;11.13;;;;;;;;;;4969103;28;20185;-68
2022/06/23 05:06:54;;;;;;;14.37;11.00;;;;;;;;;;4968039;28;20255;-68
2022/06/23 05:09:31;;;;;;;12.23;11.00;;;;;;;;;;4967675;28;20216;-68
2022/06/23 05:11:59;;;;;;;16.73;10.57;;;;;;;;;;4966495;28;20331;-68
2022/06/23 05:14:25;;;;;;;11.93;10.73;;;;;;;;;;4971189;28;20284;-68
2022/06/23 05:16:53;;;;;;;14.57;11.20;;;;;;;;;;4967799;28;20193;-73
2022/06/23 05:19:21;;;;;;;13.40;11.53;;;;;;;;;;4969254;28;20274;-71
2022/06/23 05:22:11;;;;;;;16.77;15.03;;;;;;;;;;4968517;28;20184;-71
2022/06/23 05:24:42;;;;;;;20.10;16.70;;;;;;;;;;4957034;28;20710;-70
2022/06/23 05:27:15;;;;;;;17.00;15.40;;;;;;;;;;4947655;28;20188;-70
2022/06/23 05:29:41;;;;;;;21.00;18.80;;;;;;;;;;4962173;28;20216;-70
2022/06/23 05:32:15;;;;;;;22.10;19.87;;;;;;;;;;4964412;28;20212;-70
2022/06/23 05:34:51;;;;;;;25.13;21.87;;;;;;;;;;4964038;28;20188;-70
2022/06/23 05:37:34;;;;;;;26.07;20.83;;;;;;;;;;4946412;28;20240;-70
2022/06/23 05:40:10;;;;;;;24.70;22.00;;;;;;;;;;4964137;28;20295;-70
2022/06/23 05:42:39;;;;;;;23.23;20.73;;;;;;;;;;4966884;28;20216;-71
2022/06/23 05:45:09;;;;;;;24.27;20.63;;;;;;;;;;4970255;28;20231;-74
2022/06/23 05:47:38;;;;;;;22.53;20.33;;;;;;;;;;4970429;28;20188;-71
2022/06/23 05:50:12;;;;;;;22.13;19.80;;;;;;;;;;4969527;28;20208;-72
2022/06/23 05:52:44;;;;;;;23.17;18.27;;;;;;;;;;4970242;28;20184;-73
2022/06/23 05:55:20;;;;;;;19.83;16.73;;;;;;;;;;4971613;28;20185;-73
2022/06/23 05:57:53;;;;;;;18.77;16.70;;;;;;;;;;4971952;28;20278;-74
2022/06/23 06:00:22;;;;;;;17.07;14.30;;;;;;;;;;4969660;28;20295;-70
2022/06/23 06:03:02;;;;;;;15.03;11.60;;;;;;;;;;4970859;28;20184;-70
2022/06/23 06:05:31;;;;;;;11.90;10.70;;;;;;;;;;4971942;28;20648;-70
2022/06/23 06:07:59;;;;;;;22.33;12.73;;;;;;;;;;4970872;28;20189;-69
2022/06/23 06:10:27;;;;;;;14.17;12.03;;;;;;;;;;4971182;28;20355;-69
2022/06/23 06:12:54;;;;;;;17.23;14.43;;;;;;;;;;4967707;28;20604;-69
2022/06/23 06:15:23;;;;;;;18.30;16.40;;;;;;;;;;4970261;28;20188;-69
2022/06/23 06:17:51;;;;;;;20.20;16.87;;;;;;;;;;4970926;28;20218;-70
2022/06/23 06:20:22;;;;;;;17.83;16.03;;;;;;;;;;4971222;28;20668;-70
2022/06/23 06:23:04;;;;;;;20.67;14.97;;;;;;;;;;4971697;28;20220;-69
2022/06/23 06:25:32;;;;;;;17.50;15.00;;;;;;;;;;4964623;28;20197;-70
2022/06/23 06:28:14;;;;;;;15.93;14.20;;;;;;;;;;4936936;28;20204;-70
2022/06/23 06:30:45;;;;;;;15.93;13.27;;;29.00;49.30;;;;;;4968239;28;20201;-70
2022/06/23 06:33:34;;;;;;;15.73;13.50;;;22.80;99.90;;;;;;4971484;28;20196;-70
2022/06/23 06:36:00;;;;;;;14.93;13.30;;;22.60;99.90;;;;;;4969326;28;20181;-70
2022/06/23 06:38:29;;;;;;;16.67;12.37;;;22.70;99.90;;;;;;4971423;28;20199;-69
2022/06/23 06:40:57;;;;;;;12.60;11.27;;;22.70;99.90;;;;;;4967994;28;20219;-69
2022/06/23 06:43:31;;;;;;;12.43;11.23;;;22.70;99.90;;;;;;4968889;28;20184;-69
2022/06/23 06:45:58;;;;;;;14.67;11.43;;;22.80;99.90;;;;;;4969995;28;20192;-70
2022/06/23 06:48:31;;;;;;;14.13;10.73;;;22.80;99.90;;;;;;4969576;28;20220;-68
2022/06/23 06:51:11;;;;;;;14.57;10.73;;;22.90;99.90;;;;;;4971194;28;20216;-70
2022/06/23 06:53:45;;;;;;;11.97;9.33;;;22.90;99.90;;;;;;4967342;28;20215;-68
2022/06/23 06:56:14;;;;;;;11.73;10.40;;;23.00;99.90;;;;;;4969623;28;20195;-68
2022/06/23 06:58:45;;;;;;;16.47;10.90;;;23.20;99.90;;;;;;4970998;28;20639;-69
2022/06/23 07:01:21;;;;;;;13.00;11.57;;;23.30;99.90;;;;;;4971219;28;20192;-70
2022/06/23 07:03:49;;;;;;;17.23;12.80;;;23.40;99.90;;;;;;4969195;28;20191;-68
2022/06/23 07:06:26;;;;;;;18.73;14.00;;;23.50;99.90;;;;;;4970365;28;20200;-69
2022/06/23 07:09:25;;;;;;;18.70;16.70;;;23.60;99.90;;;;;;4968527;28;20744;-69
2022/06/23 07:12:13;;;;;;;17.73;15.87;;;23.70;99.90;;;;;;4969388;28;20194;-73
2022/06/23 07:14:46;;;;;;;21.30;16.33;;;23.70;99.90;;;;;;4967725;28;20588;-74
2022/06/23 07:17:32;;;;;;;19.57;15.27;;;23.70;99.90;;;;;;4964200;28;20181;-74
2022/06/23 07:20:04;;;;;;;18.60;15.73;;;23.60;99.90;;;;;;4964227;28;20220;-72
2022/06/23 07:22:38;;;;;;;19.73;15.07;;;23.60;99.90;;;;;;4968927;28;20267;-71
2022/06/23 07:25:10;;;;;;;15.80;13.60;;;;;;;;;;4966791;28;20539;-71
2022/06/23 07:27:39;;;;;;;15.80;13.13;;;;;;;;;;4967749;28;21971;-71
2022/06/23 07:30:07;;;;;;;16.83;12.90;;;;;;;;;;4969234;28;20621;-71
2022/06/23 07:32:40;;;;;;;15.60;13.87;;;;;;;;;;4965448;28;20177;-71
2022/06/23 07:35:17;;;;;;;15.93;14.23;;;;;;;;;;4969004;28;20283;-71
2022/06/23 07:37:46;;;;;;;18.97;14.80;;;;;;;;;;4952880;28;20184;-71
2022/06/23 07:40:14;;;;;;;17.57;14.07;;;;;;;;;;4969270;28;20209;-71
2022/06/23 07:42:47;;;;;;;17.27;12.67;;;23.60;99.90;;;;;;4969597;28;20180;-71
2022/06/23 07:45:15;;;;;;;15.97;11.33;;;23.90;99.90;;;;;;4966994;28;20197;-71
2022/06/23 07:47:42;;;;;;;14.03;11.17;;;;;;;;;;4969687;28;20212;-72
2022/06/23 07:50:08;;;;;;;14.83;11.93;;;;;;;;;;4968258;28;20857;-72
2022/06/23 07:52:34;;;;;;;11.83;8.87;;;;;;;;;;4969717;28;20173;-73
2022/06/23 07:55:01;;;;;;;9.80;8.50;;;;;;;;;;4971156;28;20192;-77
2022/06/23 07:57:30;;;;;;;11.50;8.70;;;;;;;;;;4969562;28;20188;-77
2022/06/23 07:59:59;;;;;;;10.83;8.00;;;;;;;;;;4971902;28;20710;-72
2022/06/23 08:02:35;;;;;;;12.37;8.87;;;;;;;;;;4968081;28;20683;-75
2022/06/23 08:05:12;;;;;;;14.37;8.90;;;;;;;;;;4966524;28;20266;-74
2022/06/23 08:07:39;;;;;;;13.90;9.10;;;;;;;;;;4970361;28;20188;-71
2022/06/23 08:10:14;;;;;;;11.80;9.00;;;;;;;;;;4969621;28;20228;-71
2022/06/23 08:12:56;;;;;;;11.20;9.20;;;;;;;;;;4969577;28;20260;-70
2022/06/23 08:18:24;;;;;;;14.50;10.57;;;;;;;;;;4967100;28;20185;-71
2022/06/23 08:20:53;;;;;;;12.17;10.20;;;;;;;;;;4969576;28;20205;-71
2022/06/23 08:23:21;;;;;;;13.70;9.70;;;;;;;;;;4969405;28;20264;-71
2022/06/23 08:25:47;;;;;;;10.60;9.13;;;;;;;;;;4973402;28;20184;-71
2022/06/23 08:28:15;;;;;;;14.07;9.53;;;;;;;;;;4977194;28;20257;-71
2022/06/23 08:30:41;;;;;;;13.07;9.47;;;;;;;;;;4973101;28;20233;-71
2022/06/23 08:33:07;;;;;;;12.07;9.00;;;;;;;;;;4974009;28;20682;-71
2022/06/23 08:35:37;;;;;;;13.03;10.03;;;;;;;;;;4974267;28;20272;-71
2022/06/23 08:38:17;;;;;;;13.73;9.60;;;;;;;;;;4972433;28;20184;-70
2022/06/23 08:41:01;;;;;;;13.03;9.97;;;;;;;;;;4973953;28;20299;-71
2022/06/23 08:43:38;;;;;;;15.37;10.07;;;;;;;;;;4973583;28;20181;-70
2022/06/23 08:46:10;;;;;;;10.73;9.47;;;;;;;;;;4976448;28;20196;-71
2022/06/23 08:48:43;;;;;;;10.27;9.23;;;;;;;;;;4973243;28;20210;-70
2022/06/23 08:51:15;;;;;;;13.87;10.13;;;;;;;;;;4976748;28;20191;-81
2022/06/23 08:53:54;;;;;;;14.63;9.27;;;;;;;;;;4975595;28;21232;-71
2022/06/23 08:56:24;;;;;;;11.47;9.40;;;;;;;;;;4973365;28;20251;-70
2022/06/23 08:58:52;;;;;;;10.77;8.87;;;;;;;;;;4971585;28;20209;-72
2022/06/23 09:01:25;;;;;;;14.67;8.73;;;;;;;;;;4970225;28;20272;-71
2022/06/23 09:03:51;;;;;;;12.83;8.40;;;;;;;;;;4972036;28;20259;-71
2022/06/23 09:06:35;;;;;;;13.87;8.23;;;;;;;;;;4973506;28;20190;-71
2022/06/23 09:09:07;;;;;;;14.30;7.73;;;;;;;;;;4974435;28;20208;-71
2022/06/23 09:11:42;;;;;;;14.97;8.33;;;;;;;;;;4975558;28;20270;-71
2022/06/23 09:14:18;;;;;;;10.80;8.10;;;;;;;;;;4963114;28;20187;-71
2022/06/23 09:16:53;;;;;;;14.90;8.37;;;;;;;;;;4973988;28;20271;-71
2022/06/23 09:19:38;;;;;;;13.63;8.27;;;;;;;;;;4973493;28;20934;-71
2022/06/23 09:22:12;;;;;;;12.57;7.87;;;;;;;;;;4974679;28;20188;-71
2022/06/23 09:24:44;;;;;;;11.43;8.07;;;;;;;;;;4973219;28;20210;-75
2022/06/23 09:27:10;;;;;;;11.80;8.47;;;23.90;99.90;;;;;;4974412;28;20275;-71
2022/06/23 09:29:45;;;;;;;13.77;8.33;;;26.10;92.40;;;;;;4970274;28;20320;-72
2022/06/23 09:32:36;;;;;;;10.83;8.73;;;26.10;92.80;;;;;;4974758;28;20196;-72
2022/06/23 09:35:17;;;;;;;10.03;7.70;;;26.10;92.40;;;;;;4974154;28;20253;-72
2022/06/23 09:38:17;;;;;;;12.07;8.30;;;26.10;92.00;;;;;;4977340;28;20207;-71
2022/06/23 09:41:18;;;;;;;10.47;8.30;;;26.20;92.10;;;;;;4973543;28;20273;-72
2022/06/23 09:43:47;;;;;;;10.97;8.00;;;26.30;91.10;;;;;;4936999;28;20570;-72
2022/06/23 09:46:24;;;;;;;11.27;7.97;;;26.40;86.60;;;;;;4979731;28;20863;-72
2022/06/23 09:49:02;;;;;;;11.37;8.27;;;;;;;;;;4979153;28;20204;-72
2022/06/23 09:51:28;;;;;;;9.67;7.07;;;;;;;;;;4974009;28;20183;-71
2022/06/23 09:54:22;;;;;;;11.53;7.87;;;;;;;;;;4977188;28;20630;-72
2022/06/23 09:57:00;;;;;;;8.40;7.27;;;;;;;;;;4971908;28;20200;-72
2022/06/23 09:59:44;;;;;;;11.03;7.83;;;;;;;;;;4971883;28;20212;-71
2022/06/23 10:02:10;;;;;;;11.90;7.17;;;;;;;;;;4981715;28;20184;-71
2022/06/23 10:04:54;;;;;;;9.10;6.90;;;;;;;;;;4972438;28;20199;-73
2022/06/23 10:07:29;;;;;;;11.13;7.23;;;;;;;;;;4972830;28;20670;-73
2022/06/23 10:10:08;;;;;;;10.60;7.27;;;;;;;;;;4975314;28;20690;-73
2022/06/23 10:12:41;;;;;;;9.77;6.30;;;;;;;;;;4974654;28;20211;-73
2022/06/23 10:15:15;;;;;;;11.40;6.47;;;;;;;;;;4968965;28;20189;-75
2022/06/23 10:17:50;;;;;;;8.03;5.70;;;;;;;;;;4973178;28;20830;-73
2022/06/23 10:20:45;;;;;;;9.37;6.10;;;;;;;;;;4965970;28;20223;-76
2022/06/23 10:23:14;;;;;;;10.43;6.00;;;;;;;;;;4920486;28;20206;-74
2022/06/23 10:25:45;;;;;;;10.17;5.93;;;;;;;;;;4967421;28;20189;-73
2022/06/23 10:28:17;;;;;;;9.48;6.28;;;;;;;;;;4968980;28;20798;-73
2022/06/23 10:30:44;;;;;;;11.30;6.13;;;;;;;;;;4970663;28;20517;-74
2022/06/23 10:33:16;;;;;;;7.43;5.50;;;;;;;;;;4970238;28;20243;-73
2022/06/23 10:36:08;;;;;;;8.17;5.40;;;;;;;;;;4970631;28;20184;-73
2022/06/23 10:38:46;;;;;;;7.63;5.20;;;;;;;;;;4965151;28;20200;-75
2022/06/23 10:41:27;;;;;;;7.67;5.20;;;;;;;;;;4973317;28;20192;-74
2022/06/23 10:43:53;;;;;;;9.30;4.60;;;;;;;;;;4958166;28;20191;-72
2022/06/23 10:46:32;;;;;;;7.80;5.20;;;;;;;;;;4973470;28;20210;-72
2022/06/23 10:49:31;;;;;;;9.20;4.80;;;;;;;;;;4971056;28;20619;-72
2022/06/23 10:52:06;;;;;;;8.47;5.03;;;;;;;;;;4926145;28;20192;-70
2022/06/23 10:54:51;;;;;;;11.80;6.70;;;;;;;;;;4965133;28;20672;-70
2022/06/23 10:57:20;;;;;;;7.97;5.70;;;;;;;;;;4968531;28;20344;-71
2022/06/23 10:59:46;;;;;;;7.77;4.67;;;;;;;;;;4969090;28;20235;-70
2022/06/23 11:02:31;;;;;;;8.07;4.40;;;;;;;;;;4969688;28;20192;-75
2022/06/23 11:05:09;;;;;;;7.33;4.03;;;;;;;;;;4964856;28;20191;-74
2022/06/23 11:07:36;;;;;;;12.93;4.40;;;;;;;;;;4968366;28;20231;-76
2022/06/23 11:10:29;;;;;;;9.87;4.70;;;26.40;85.60;;;;;;4967713;28;20237;-75
2022/06/23 11:13:14;;;;;;;11.27;4.77;;;30.20;55.90;;;;;;4966528;28;20188;-75
2022/06/23 11:15:46;;;;;;;10.00;4.53;;;30.40;55.40;;;;;;4957845;28;20595;-75
2022/06/23 11:18:35;;;;;;;8.23;4.10;;;30.40;54.50;;;;;;4970672;28;21822;-75
2022/06/23 11:21:26;;;;;;;9.73;4.57;;;30.50;54.10;;;;;;4969209;28;20250;-75
2022/06/23 11:24:05;;;;;;;6.53;3.73;;;30.60;53.20;;;;;;4974189;28;20195;-75
2022/06/23 11:27:00;;;;;;;10.30;4.30;;;30.70;53.00;;;;;;4972484;28;20873;-75
2022/06/23 11:29:41;;;;;;;8.87;4.60;;;30.90;53.00;;;;;;4974720;28;20282;-75
2022/06/23 11:32:16;;;;;;;6.80;3.90;;;31.20;51.90;;;;;;4964148;28;20182;-72
2022/06/23 11:35:04;;;;;;;6.20;4.30;;;31.50;52.20;;;;;;4965589;28;20183;-75
2022/06/23 11:38:18;;;;;;;10.43;4.60;;;32.00;51.30;;;;;;4966935;28;20216;-72
2022/06/23 11:40:58;;;;;;;9.93;4.67;;;32.40;50.30;;;;;;4940150;28;20712;-73
2022/06/23 11:43:36;;;;;;;7.87;4.40;;;;;;;;;;4967850;28;20699;-73
2022/06/23 11:46:08;;;;;;;9.83;4.70;;;;;;;;;;4971890;28;20200;-73
2022/06/23 11:48:37;;;;;;;7.70;4.50;;;;;;;;;;4973472;28;20672;-74
2022/06/23 11:51:06;;;;;;;9.20;4.60;;;;;;;;;;4978385;28;20232;-72
2022/06/23 11:53:45;;;;;;;8.20;4.60;;;;;;;;;;4971750;28;20180;-72
2022/06/23 11:56:15;;;;;;;8.77;4.60;;;;;;;;;;4967273;28;20621;-72
2022/06/23 11:58:49;;;;;;;6.70;4.30;;;;;;;;;;4952275;28;20186;-71
2022/06/23 12:01:18;;;;;;;6.93;4.37;;;32.70;50.20;;;;;;4972232;28;20392;-73
2022/06/23 12:04:12;;;;;;;10.07;4.70;;;34.20;47.40;;;;;;4974474;28;20187;-73
2022/06/23 12:06:59;;;;;;;7.23;4.67;;;34.40;46.50;;;;;;4976748;28;20191;-73
2022/06/23 12:09:53;;;;;;;9.00;4.80;;;33.90;46.60;;;;;;4983294;28;20215;-74
2022/06/23 12:12:20;;;;;;;11.50;4.73;;;33.40;47.40;;;;;;4981585;28;20180;-73
2022/06/23 12:14:46;;;;;;;9.80;4.77;;;33.00;48.10;;;;;;4975312;28;20222;-73
2022/06/23 12:17:27;;;;;;;11.97;4.53;;;;;;;;;;4972582;28;20665;-73
2022/06/23 12:20:15;;;;;;;9.87;4.70;;;;;;;;;;4973176;28;20202;-74
2022/06/23 12:23:01;;;;;;;8.67;4.37;;;;;;;;;;4978421;28;20331;-73
2022/06/23 12:25:33;;;;;;;9.27;4.57;;;;;;;;;;4971087;28;20196;-73
2022/06/23 12:28:02;;;;;;;10.97;4.07;;;;;;;;;;4966835;28;20291;-73
2022/06/23 12:30:29;;;;;;;10.17;4.00;;;;;;;;;;4973006;28;20225;-73
2022/06/23 12:33:13;;;;;;;8.10;3.73;;;;;;;;;;4976218;28;20249;-73
2022/06/23 12:35:58;;;;;;;5.83;3.93;;;;;;;;;;4973686;28;20211;-73
2022/06/23 12:38:39;;;;;;;7.63;3.93;;;;;;;;;;4968457;28;20525;-74
2022/06/23 12:41:34;;;;;;;6.93;3.27;;;;;;;;;;4968956;28;20180;-73
2022/06/23 12:44:03;;;;;;;5.63;3.50;;;;;;;;;;4965086;28;20189;-75
2022/06/23 12:46:45;;;;;;;8.93;3.40;;;;;;;;;;4977285;28;20296;-73
2022/06/23 12:49:11;;;;;;;6.20;3.40;;;;;;;;;;4969688;28;20246;-73
2022/06/23 12:51:40;;;;;;;8.13;3.43;;;;;;;;;;4972218;28;20578;-74
2022/06/23 12:54:11;;;;;;;5.13;3.00;;;;;;;;;;4979487;28;20246;-73
2022/06/23 12:56:40;;;;;;;7.30;3.43;;;;;;;;;;4973685;28;20190;-74
2022/06/23 12:59:09;;;;;;;7.07;3.42;;;;;;;;;;4971351;28;20211;-73
2022/06/23 13:01:41;;;;;;;11.70;3.28;;;;;;;;;;4972759;28;20191;-74
2022/06/23 13:04:30;;;;;;;7.88;3.17;;;;;;;;;;4969308;28;20206;-73
2022/06/23 13:07:16;;;;;;;9.13;3.15;;;;;;;;;;4973534;28;20264;-74
2022/06/23 13:09:42;;;;;;;4.65;3.00;;;;;;;;;;4970727;28;20824;-72
2022/06/23 13:12:08;;;;;;;6.13;2.83;;;;;;;;;;4970137;28;20207;-74
2022/06/23 13:14:42;;;;;;;7.32;3.15;;;;;;;;;;4970463;28;20224;-72
2022/06/23 13:17:22;;;;;;;6.72;2.90;;;;;;;;;;4968737;28;20590;-72
2022/06/23 13:20:01;;;;;;;5.97;3.22;;;;;;;;;;4962739;28;20283;-72
2022/06/23 13:22:27;;;;;;;5.95;3.30;;;;;;;;;;4971131;28;20236;-73
2022/06/23 13:24:55;;;;;;;6.32;3.05;;;;;;;;;;4972949;28;20216;-72
2022/06/23 13:27:23;;;;;;;7.57;3.30;;;;;;;;;;4972179;28;20184;-72
2022/06/23 13:29:55;;;;;;;5.40;3.00;;;;;;;;;;4972281;28;20221;-72
2022/06/23 13:32:24;;;;;;;5.88;2.75;;;;;;;;;;4974496;28;20184;-73
2022/06/23 13:34:50;;;;;;;5.18;2.90;;;;;;;;;;4972547;28;20179;-73
2022/06/23 13:37:21;;;;;;;6.07;3.30;;;;;;;;;;4957706;28;20695;-74
2022/06/23 13:40:13;;;;;;;4.55;2.75;;;;;;;;;;4972695;28;20219;-74
2022/06/23 13:42:45;;;;;;;6.82;3.20;;;;;;;;;;4971056;28;20189;-73
2022/06/23 13:45:14;;;;;;;5.78;3.20;;;;;;;;;;4969533;28;20603;-74
2022/06/23 13:47:58;;;;;;;7.35;3.15;;;;;;;;;;4971608;28;20752;-75
2022/06/23 13:50:27;;;;;;;5.20;3.10;;;;;;;;;;4971810;28;20212;-74
2022/06/23 13:53:01;;;;;;;5.10;3.17;;;;;;;;;;4968271;28;20191;-74
2022/06/23 13:55:32;;;;;;;6.55;3.40;;;;;;;;;;4970880;28;20258;-76
2022/06/23 13:58:08;;;;;;;5.70;3.10;;;;;;;;;;4970812;28;20548;-74
2022/06/23 14:00:56;;;;;;;8.23;3.33;;;;;;;;;;4972728;28;20691;-74
2022/06/23 14:03:29;;;;;;;7.50;3.30;;;;;;;;;;4973266;28;23994;-74
2022/06/23 14:06:07;;;;;;;6.25;3.08;;;;;;;;;;4968410;28;20255;-75
2022/06/23 14:08:40;;;;;;;6.80;3.22;;;;;;;;;;4969923;28;20206;-74
2022/06/23 14:11:20;;;;;;;5.85;2.90;;;;;;;;;;4975402;28;20207;-74
2022/06/23 14:13:52;;;;;;;6.68;3.25;;;;;;;;;;4969016;28;20210;-74
2022/06/23 14:16:28;;;;;;;10.82;3.47;;;;;;;;;;4967829;28;20212;-74
2022/06/23 14:18:54;;;;;;;5.82;3.25;;;;;;;;;;4970009;28;20268;-74
2022/06/23 14:21:42;;;;;;;6.28;3.60;;;;;;;;;;4969682;28;20189;-79
2022/06/23 14:24:12;;;;;;;5.22;3.00;;;;;;;;;;4967859;28;20244;-78
2022/06/23 14:26:39;;;;;;;7.57;3.10;;;;;;;;;;4972493;28;20299;-77
2022/06/23 14:29:08;;;;;;;5.55;2.70;;;;;;;;;;4948832;28;20215;-77
2022/06/23 14:31:37;;;;;;;7.93;3.20;;;;;;;;;;4964484;28;20200;-77
2022/06/23 14:34:26;;;;;;;6.90;2.88;;;;;;;;;;4969100;28;20177;-78
2022/06/23 14:36:56;;;;;;;5.70;2.50;;;;;;;;;;4978761;28;20323;-78
2022/06/23 14:39:31;;;;;;;5.25;2.72;;;;;;;;;;4968847;28;20592;-77
2022/06/23 14:42:21;;;;;;;8.35;3.22;;;;;;;;;;4967830;28;20205;-77
2022/06/23 14:45:10;;;;;;;8.00;2.85;;;;;;;;;;4968637;28;20190;-79
2022/06/23 14:47:49;;;;;;;6.85;3.20;;;;;;;;;;4955428;28;20192;-79
2022/06/23 14:50:24;;;;;;;6.75;2.75;;;;;;;;;;4964919;28;20208;-79
2022/06/23 14:53:08;;;;;;;5.68;3.00;;;;;;;;;;4959059;28;20195;-78
2022/06/23 14:55:41;;;;;;;4.75;2.70;;;;;;;;;;4974869;28;20215;-82
2022/06/23 14:58:14;;;;;;;5.93;3.05;;;;;;;;;;4959423;28;20188;-79